Time;durP1;ratioP1;P1;durP2;ratioP2;P2;SDS_P1;SDS_P2;PMS_P1;PMS_P2;Temp;Humidity;BMP_temperature;BMP_pressure;BME280_temperature;BME280_humidity;BME280_pressure;Samples;Min_cycle;Max_cycle;Signal;HPM_P1;HPM_P2
2024/03/30 00:03:57;;;;;;;1.50;0.57;;;;;;;17.50;55.84;99529.63;10449830;28;20094;-55
2024/03/30 00:08:57;;;;;;;1.80;0.93;;;;;;;17.49;56.90;99540.69;10448839;28;20333;-54
2024/03/30 00:13:57;;;;;;;2.83;0.95;;;;;;;17.47;56.60;99529.50;10431195;28;20676;-53
2024/03/30 00:18:59;;;;;;;1.63;1.20;;;;;;;17.46;55.78;99531.38;10448580;28;20037;-55
2024/03/30 00:24:00;;;;;;;1.85;0.90;;;;;;;17.49;55.92;99536.09;10448605;28;20283;-53
2024/03/30 00:29:00;;;;;;;2.17;0.70;;;;;;;17.50;56.77;99537.69;10448841;28;20404;-55
2024/03/30 00:34:00;;;;;;;1.03;0.47;;;;;;;17.52;56.02;99532.00;10430693;28;20282;-52
2024/03/30 00:39:00;;;;;;;1.43;0.67;;;;;;;17.56;56.08;99527.59;10447750;28;20635;-54
2024/03/30 00:44:01;;;;;;;1.23;0.68;;;;;;;17.60;55.86;99527.75;10448377;28;20287;-53
2024/03/30 00:49:01;;;;;;;1.80;1.03;;;;;;;17.60;56.14;99511.66;10448093;28;20029;-53
2024/03/30 00:54:01;;;;;;;0.87;0.70;;;;;;;17.57;55.83;99506.94;10430207;28;20271;-53
2024/03/30 00:59:02;;;;;;;1.52;0.85;;;;;;;17.53;55.46;99496.06;10447801;28;20273;-53
2024/03/30 01:04:03;;;;;;;2.10;1.27;;;;;;;17.52;55.52;99486.44;10446989;28;20029;-55
2024/03/30 01:09:03;;;;;;;1.20;0.70;;;;;;;17.50;55.67;99478.72;10448037;28;20374;-54
2024/03/30 01:14:04;;;;;;;1.93;0.50;;;;;;;17.53;56.17;99471.97;10446840;28;20472;-52
2024/03/30 01:19:05;;;;;;;1.38;0.68;;;;;;;17.53;55.39;99478.09;10447237;28;20298;-54
2024/03/30 01:24:06;;;;;;;4.53;0.70;;;;;;;17.52;56.08;99467.69;10446631;28;20044;-53
2024/03/30 01:29:08;;;;;;;1.48;0.60;;;;;;;17.49;55.01;99453.03;10447090;28;20063;-53
2024/03/30 01:34:09;;;;;;;1.30;0.65;;;;;;;17.48;54.89;99446.09;10446519;28;20502;-53
2024/03/30 01:39:09;;;;;;;1.17;0.50;;;;;;;17.46;56.02;99445.63;10446646;28;20055;-55
2024/03/30 01:44:09;;;;;;;1.07;0.67;;;;;;;17.51;55.82;99426.69;10446295;28;20357;-53
2024/03/30 01:49:10;;;;;;;0.70;0.40;;;;;;;17.52;55.41;99439.00;10450037;28;20267;-53
2024/03/30 01:54:11;;;;;;;0.90;0.50;;;;;;;17.51;56.14;99432.06;10454461;28;20278;-53
2024/03/30 01:59:11;;;;;;;1.02;0.60;;;;;;;17.50;55.50;99443.88;10454451;28;20463;-55
2024/03/30 02:04:13;;;;;;;1.20;0.73;;;;;;;17.48;54.83;99448.00;10436052;28;20025;-54
2024/03/30 02:09:14;;;;;;;1.33;0.70;;;;;;;17.49;55.17;99442.31;10454354;28;20314;-51
2024/03/30 02:14:14;;;;;;;0.70;0.50;;;;;;;17.49;56.36;99436.16;10411560;28;20125;-54
2024/03/30 02:19:16;;;;;;;1.05;0.50;;;;;;;17.49;56.55;99438.84;10412752;28;20495;-54
2024/03/30 02:24:16;;;;;;;0.98;0.60;;;;;;;17.49;55.44;99439.63;10410863;28;20029;-52
2024/03/30 02:29:18;;;;;;;0.80;0.47;;;;;;;17.46;55.28;99445.63;10412346;28;20432;-53
2024/03/30 02:34:18;;;;;;;0.55;0.40;;;;;;;17.46;55.29;99456.34;10379325;28;20276;-54
2024/03/30 02:39:18;;;;;;;0.80;0.50;;;;;;;17.43;55.75;99454.31;10370878;28;20037;-54
2024/03/30 02:44:19;;;;;;;1.60;0.60;;;;;;;17.49;55.59;99460.28;10352503;28;20292;-53
2024/03/30 02:49:19;;;;;;;0.70;0.50;;;;;;;17.52;55.40;99468.50;10371078;28;20288;-52
2024/03/30 02:54:20;;;;;;;1.00;0.60;;;;;;;17.50;56.15;99477.94;10369940;28;20281;-54
2024/03/30 02:59:20;;;;;;;1.85;0.50;;;;;;;17.49;54.65;99462.97;10370047;28;20758;-53
2024/03/30 03:04:20;;;;;;;0.90;0.50;;;;;;;17.50;54.56;99476.03;10369542;28;20084;-53
2024/03/30 03:09:21;;;;;;;0.90;0.50;;;;;;;17.48;55.67;99466.75;10369717;28;20276;-53
2024/03/30 03:14:21;;;;;;;1.30;0.60;;;;;;;17.46;56.10;99471.66;10368939;28;20321;-52
2024/03/30 03:19:21;;;;;;;0.97;0.80;;;;;;;17.45;55.99;99448.63;10370172;28;20688;-53
2024/03/30 03:24:22;;;;;;;0.87;0.50;;;;;;;17.50;55.72;99448.44;10368763;28;20296;-53
2024/03/30 03:29:23;;;;;;;1.00;0.40;;;;;;;17.56;54.83;99439.16;10368998;28;20756;-52
2024/03/30 03:34:23;;;;;;;1.00;0.45;;;;;;;17.57;55.20;99431.91;10368514;28;20029;-52
2024/03/30 03:39:24;;;;;;;1.33;0.70;;;;;;;17.53;55.02;99432.53;10364565;28;20037;-53
2024/03/30 03:44:24;;;;;;;0.80;0.40;;;;;;;17.49;54.98;99428.91;10368065;28;20706;-53
2024/03/30 03:49:25;;;;;;;0.90;0.50;;;;;;;17.46;55.17;99426.09;10368468;28;20161;-52
2024/03/30 03:54:25;;;;;;;0.80;0.50;;;;;;;17.52;55.13;99406.84;10366882;28;20351;-52
2024/03/30 03:59:26;;;;;;;0.80;0.50;;;;;;;17.51;55.80;99407.16;10366683;28;20030;-53
2024/03/30 04:04:26;;;;;;;1.85;0.50;;;;;;;17.49;56.11;99402.09;10367172;28;20789;-54
2024/03/30 04:09:28;;;;;;;1.00;0.70;;;;;;;17.46;55.36;99416.16;10370067;28;20017;-53
2024/03/30 04:14:29;;;;;;;0.98;0.57;;;;;;;17.51;55.32;99423.22;10406773;28;20831;-54
2024/03/30 04:19:29;;;;;;;3.97;1.50;;;;;;;17.51;55.50;99407.94;10452594;28;20032;-53
2024/03/30 04:24:29;;;;;;;0.80;0.40;;;;;;;17.49;55.73;99410.16;10449335;28;20032;-53
2024/03/30 04:29:30;;;;;;;1.23;0.50;;;;;;;17.46;56.14;99407.31;10449307;28;20021;-54
2024/03/30 04:34:30;;;;;;;1.20;0.40;;;;;;;17.46;55.37;99396.63;10449682;28;20283;-53
2024/03/30 04:39:30;;;;;;;0.83;0.40;;;;;;;17.49;55.81;99387.91;10449852;28;20328;-52
2024/03/30 04:44:31;;;;;;;0.80;0.50;;;;;;;17.48;55.53;99381.78;10450017;28;20345;-52
2024/03/30 04:49:31;;;;;;;1.10;0.50;;;;;;;17.47;55.58;99379.44;10447757;28;20037;-53
2024/03/30 04:54:31;;;;;;;0.73;0.30;;;;;;;17.44;55.47;99375.50;10447573;28;20020;-51
2024/03/30 04:59:32;;;;;;;0.90;0.47;;;;;;;17.49;55.54;99380.66;10447573;28;20295;-54
2024/03/30 05:04:32;;;;;;;1.75;0.50;;;;;;;17.47;56.39;99376.75;10448278;28;20032;-53
2024/03/30 05:09:32;;;;;;;0.40;0.32;;;;;;;17.46;55.23;99353.72;10450728;28;20029;-54
2024/03/30 05:14:33;;;;;;;1.13;0.30;;;;;;;17.41;55.50;99354.72;10450107;28;20120;-54
2024/03/30 05:24:52;;;;;;;0.43;0.40;;;;;;;17.46;55.31;99351.84;10449521;28;20024;-50
2024/03/30 05:29:52;;;;;;;0.90;0.50;;;;;;;17.47;55.00;99350.72;10447890;28;20033;-54
2024/03/30 05:34:52;;;;;;;1.43;0.70;;;;;;;17.44;55.63;99346.03;10449733;28;20635;-54
2024/03/30 05:39:53;;;;;;;0.83;0.50;;;;;;;17.44;55.71;99347.91;10450095;28;20271;-53
2024/03/30 05:44:53;;;;;;;2.33;0.73;;;;;;;17.48;55.13;99335.44;10449699;28;20788;-54
2024/03/30 05:49:54;;;;;;;0.63;0.47;;;;;;;17.43;55.80;99320.34;10448824;28;20297;-55
2024/03/30 05:54:55;;;;;;;0.65;0.43;;;;;;;17.42;55.27;99313.41;10448437;28;20025;-52
2024/03/30 05:59:55;;;;;;;0.85;0.40;;;;;;;17.42;55.13;99309.94;10449647;28;20028;-53
2024/03/30 06:04:55;;;;;;;0.93;0.60;;;;;;;17.46;55.74;99303.59;10449140;28;20032;-54
2024/03/30 06:09:56;;;;;;;1.33;0.33;;;;;;;17.46;54.56;99292.09;10449607;28;20290;-53
2024/03/30 06:14:56;;;;;;;1.83;0.70;;;;;;;17.46;55.35;99287.53;10448742;28;20353;-53
2024/03/30 06:19:57;;;;;;;1.55;0.57;;;;;;;17.43;54.81;99295.44;10448499;28;20040;-55
2024/03/30 06:24:57;;;;;;;3.17;0.63;;;;;;;17.54;56.14;99297.44;10448523;28;20116;-56
2024/03/30 06:29:58;;;;;;;7.60;1.20;;;;;;;17.64;55.54;99300.84;10449220;28;20132;-55
2024/03/30 06:34:59;;;;;;;5.57;1.93;;;;;;;17.67;56.47;99292.94;10450017;28;20305;-54
2024/03/30 06:45:18;;;;;;;14.97;1.20;;;;;;;17.67;56.83;99302.88;10456669;28;20131;-55
2024/03/30 06:50:18;;;;;;;3.30;0.90;;;;;;;17.57;56.56;99304.03;10456064;28;20104;-52
2024/03/30 06:55:19;;;;;;;9.70;1.77;;;;;;;17.64;56.87;99308.88;10455768;28;20029;-56
2024/03/30 07:00:20;;;;;;;9.75;1.67;;;;;;;17.69;56.35;99316.78;10455775;28;20279;-54
2024/03/30 07:05:20;;;;;;;11.18;1.17;;;;;;;17.70;56.46;99300.38;10454867;28;20036;-56
2024/03/30 07:10:20;;;;;;;9.13;1.27;;;;;;;17.70;56.89;99305.72;10455474;28;20040;-56
2024/03/30 07:15:21;;;;;;;6.17;0.87;;;;;;;17.66;57.53;99301.31;10454563;28;20334;-53
2024/03/30 07:20:21;;;;;;;7.68;1.05;;;;;;;17.64;57.07;99301.66;10447890;28;20770;-55
2024/03/30 07:25:21;;;;;;;12.03;1.67;;;;;;;17.52;57.38;99288.13;10449539;28;20087;-57
2024/03/30 07:30:22;;;;;;;5.65;0.88;;;;;;;17.45;56.58;99274.47;10449394;28;20283;-56
2024/03/30 07:35:22;;;;;;;6.63;1.10;;;;;;;17.39;58.01;99267.69;10453859;28;20107;-55
2024/03/30 07:40:23;;;;;;;7.53;1.80;;;;;;;17.36;57.19;99266.44;10448011;28;20484;-54
2024/03/30 07:45:23;;;;;;;10.20;1.30;;;;;;;17.34;57.48;99271.34;10449667;28;20299;-56
2024/03/30 07:50:23;;;;;;;11.80;1.77;;;;;;;17.26;57.66;99266.81;10451747;28;20302;-56
2024/03/30 07:55:24;;;;;;;6.00;1.37;;;;;;;17.20;57.98;99271.56;10443480;28;20314;-56
2024/03/30 08:00:24;;;;;;;3.93;1.10;;;;;;;17.17;59.49;99264.19;10461522;28;20279;-55
2024/03/30 08:05:26;;;;;;;5.18;1.58;;;;;;;17.14;57.91;99256.75;10480376;28;20294;-55
2024/03/30 08:10:26;;;;;;;11.90;1.67;;;;;;;17.12;58.24;99253.63;10452531;28;20457;-55
2024/03/30 08:15:26;;;;;;;7.90;1.77;;;;;;;17.13;58.40;99238.34;10473311;28;20064;-55
2024/03/30 08:20:27;;;;;;;9.73;1.98;;;;;;;17.11;58.42;99237.88;10451820;28;20279;-55
2024/03/30 08:25:27;;;;;;;17.13;2.30;;;;;;;17.11;59.71;99254.75;10466698;28;20033;-54
2024/03/30 08:30:28;;;;;;;12.47;1.90;;;;;;;17.13;59.50;99232.97;10437903;28;20267;-55
2024/03/30 08:35:28;;;;;;;9.25;1.23;;;;;;;17.14;59.52;99237.22;10459534;28;20275;-56
2024/03/30 08:40:29;;;;;;;17.33;2.97;;;;;;;17.14;59.06;99210.44;10461866;28;20396;-57
2024/03/30 08:45:29;;;;;;;11.80;2.47;;;;;;;17.13;59.95;99215.03;10475170;28;20290;-56
2024/03/30 08:50:29;;;;;;;12.07;1.50;;;;;;;17.12;58.52;99228.75;10451767;28;20025;-55
2024/03/30 08:55:29;;;;;;;19.20;2.80;;;;;;;17.10;57.91;99217.56;10463638;28;20275;-56
2024/03/30 09:00:30;;;;;;;10.03;1.60;;;;;;;17.07;58.48;99200.25;10458065;28;20293;-55
2024/03/30 09:05:31;;;;;;;9.68;1.83;;;;;;;17.11;58.58;99195.81;10451497;28;20287;-55
2024/03/30 09:10:31;;;;;;;6.80;1.63;;;;;;;17.09;59.09;99202.59;10480476;28;20029;-54
2024/03/30 09:15:31;;;;;;;6.07;1.20;;;;;;;17.08;58.01;99201.03;10480802;28;20299;-55
2024/03/30 09:20:32;;;;;;;10.40;1.60;;;;;;;17.14;57.70;99191.69;10447039;28;20734;-54
2024/03/30 09:25:32;;;;;;;15.32;2.63;;;;;;;17.13;57.92;99182.88;10448942;28;20032;-54
2024/03/30 09:30:32;;;;;;;8.60;2.50;;;;;;;17.19;58.10;99197.69;10447987;28;20033;-53
2024/03/30 09:35:33;;;;;;;10.37;1.90;;;;;;;17.21;57.89;99190.09;10461157;28;20587;-54
2024/03/30 09:40:33;;;;;;;8.03;1.87;;;;;;;17.21;56.60;99175.94;10475271;28;20282;-54
2024/03/30 09:45:34;;;;;;;11.05;2.03;;;;;;;17.21;57.46;99181.28;10475711;28;20286;-54
2024/03/30 09:50:35;;;;;;;4.32;1.35;;;;;;;17.23;56.43;99169.13;10469825;28;20536;-53
2024/03/30 09:55:37;;;;;;;4.22;1.45;;;;;;;17.22;56.89;99172.91;10447085;28;20047;-55
2024/03/30 10:00:38;;;;;;;3.55;1.80;;;;;;;17.22;57.84;99193.56;10458392;28;20029;-55
2024/03/30 10:05:40;;;;;;;7.07;1.45;;;;;;;17.21;58.01;99197.34;10434433;28;20029;-54
2024/03/30 10:10:41;;;;;;;3.10;1.13;;;;;;;17.17;57.84;99191.09;10440680;28;20075;-55
2024/03/30 10:15:52;;;;;;;6.55;1.70;;;;;;;17.17;57.20;99185.72;10457097;28;20449;-54
2024/03/30 10:20:56;;;;;;;6.63;1.85;;;;;;;17.21;57.65;99197.34;10455252;28;20427;-55
2024/03/30 10:25:59;;;;;;;6.03;1.52;;;;;;;17.22;57.35;99193.56;10455149;28;20051;-54
2024/03/30 10:30:59;;;;;;;4.95;1.33;;;;;;;17.22;56.86;99199.72;10455095;28;20044;-53
2024/03/30 10:35:59;;;;;;;5.33;1.60;;;;;;;17.22;57.34;99201.59;10455416;28;20041;-55
2024/03/30 10:41:00;;;;;;;4.88;1.45;;;;;;;17.19;58.54;99197.69;10486218;28;20271;-55
2024/03/30 10:46:00;;;;;;;5.30;1.27;;;;;;;17.18;57.88;99180.03;10483336;28;20589;-55
2024/03/30 10:51:02;;;;;;;2.55;1.10;;;;;;;17.18;57.43;99172.00;10476105;28;20328;-54
2024/03/30 10:56:03;;;;;;;7.35;2.45;;;;;;;17.31;58.75;99164.84;10462773;28;20476;-55
2024/03/30 11:01:05;;;;;;;5.28;2.58;;;;;;;17.55;63.53;99150.81;10465815;28;20024;-55
2024/03/30 11:06:06;;;;;;;7.70;2.58;;;;;;;17.60;60.71;99177.41;10452625;28;20086;-53
2024/03/30 11:11:06;;;;;;;11.95;3.90;;;;;;;17.71;60.73;99175.94;10453950;28;20079;-53
2024/03/30 11:16:07;;;;;;;12.13;4.93;;;;;;;17.77;60.42;99181.91;10450220;28;20044;-55
2024/03/30 11:21:20;;;;;;;9.32;2.33;;;;;;;17.76;60.45;99199.13;10451952;28;20029;-54
2024/03/30 11:26:22;;;;;;;7.18;2.63;;;;;;;17.86;60.58;99193.34;10432813;28;20029;-54
2024/03/30 11:31:39;;;;;;;9.85;3.67;;;;;;;17.97;59.75;99199.88;10453245;28;20053;-54
2024/03/30 11:36:52;;;;;;;7.70;3.17;;;;;;;18.08;60.38;99213.69;10454406;28;20503;-55
2024/03/30 11:42:01;;;;;;;19.83;4.85;;;;;;;18.18;58.96;99221.31;10435366;28;20029;-56
2024/03/30 11:47:01;;;;;;;7.93;4.18;;;;;;;18.35;59.35;99245.34;10433113;28;20024;-53
2024/03/30 11:52:02;;;;;;;9.20;5.30;;;;;;;18.42;59.65;99250.16;10453286;28;20032;-52
2024/03/30 11:57:03;;;;;;;8.65;4.90;;;;;;;18.44;59.89;99247.13;10452913;28;20116;-57
2024/03/30 12:02:06;;;;;;;9.52;5.53;;;;;;;18.51;60.22;99250.88;10452112;28;20028;-54
2024/03/30 12:07:07;;;;;;;11.45;6.93;;;;;;;18.47;60.44;99249.97;10434989;28;20025;-57
2024/03/30 12:12:23;;;;;;;17.58;7.45;;;;;;;18.37;61.54;99261.88;10452401;28;20044;-54
2024/03/30 12:17:24;;;;;;;22.20;9.00;;;;;;;18.41;61.83;99270.06;10453023;28;20025;-53
2024/03/30 12:22:24;;;;;;;26.52;7.25;;;;;;;18.33;61.49;99247.53;10433902;28;20037;-55
2024/03/30 12:27:26;;;;;;;16.48;7.15;;;;;;;18.30;62.29;99244.75;10451204;28;20029;-54
2024/03/30 12:32:27;;;;;;;19.58;7.05;;;;;;;18.29;60.50;99249.31;10450421;28;20056;-55
2024/03/30 12:37:27;;;;;;;15.38;6.40;;;;;;;18.51;60.21;99258.91;10451872;28;20045;-55
2024/03/30 12:42:27;;;;;;;20.80;7.05;;;;;;;18.30;61.88;99258.94;10432770;28;20029;-53
2024/03/30 12:47:28;;;;;;;18.05;6.32;;;;;;;18.18;60.79;99258.09;10451150;28;20029;-55
2024/03/30 12:52:28;;;;;;;11.73;5.40;;;;;;;17.96;61.97;99286.81;10450996;28;20040;-54
2024/03/30 12:57:31;;;;;;;26.67;6.32;;;;;;;17.94;61.60;99293.59;10450677;28;20282;-55
2024/03/30 13:02:31;;;;;;;14.10;5.13;;;;;;;17.83;60.56;99302.03;10449917;28;20029;-54
2024/03/30 13:07:31;;;;;;;17.20;5.20;;;;;;;17.80;60.99;99305.38;10450961;28;20033;-54
2024/03/30 13:12:32;;;;;;;12.90;4.40;;;;;;;17.73;61.53;99312.34;10450185;28;20686;-55
2024/03/30 13:17:32;;;;;;;11.30;4.50;;;;;;;17.69;60.15;99314.88;10449787;28;20278;-54
2024/03/30 13:22:32;;;;;;;11.03;4.50;;;;;;;17.66;60.63;99333.47;10448278;28;20039;-53
2024/03/30 13:27:32;;;;;;;10.77;3.77;;;;;;;17.63;60.78;99340.25;10449175;28;20291;-54
2024/03/30 13:32:37;;;;;;;13.57;5.83;;;;;;;17.61;59.89;99350.50;10449074;28;20831;-54
2024/03/30 13:37:44;;;;;;;9.90;4.22;;;;;;;17.60;61.19;99357.00;10448974;28;20891;-55
2024/03/30 13:42:44;;;;;;;18.02;5.60;;;;;;;17.59;60.98;99381.44;10448229;28;20100;-53
2024/03/30 13:47:44;;;;;;;8.53;3.67;;;;;;;17.57;60.55;99376.41;10456988;28;20468;-54
2024/03/30 13:52:45;;;;;;;9.65;4.03;;;;;;;17.54;59.98;99395.81;10456822;28;20279;-55
2024/03/30 13:57:45;;;;;;;8.73;3.80;;;;;;;17.52;60.50;99411.41;10455848;28;20036;-54
2024/03/30 14:02:45;;;;;;;8.70;3.55;;;;;;;17.50;59.52;99408.25;10438097;28;20869;-54
2024/03/30 14:07:46;;;;;;;7.20;3.63;;;;;;;17.47;60.22;99449.88;10456101;28;20464;-54
2024/03/30 14:12:46;;;;;;;6.63;3.85;;;;;;;17.45;59.98;99445.94;10453781;28;20095;-56
2024/03/30 14:17:48;;;;;;;8.50;3.70;;;;;;;17.50;60.02;99475.25;10455956;28;20388;-54
2024/03/30 14:22:49;;;;;;;14.40;4.32;;;;;;;17.46;59.27;99488.50;10456001;28;20307;-54
2024/03/30 14:27:49;;;;;;;10.87;4.50;;;;;;;17.47;59.90;99489.28;10455621;28;20427;-55
2024/03/30 14:32:49;;;;;;;8.23;3.70;;;;;;;17.46;58.96;99515.31;10455098;28;20307;-54
2024/03/30 14:37:50;;;;;;;8.27;3.27;;;;;;;17.45;59.75;99520.97;10437574;28;20032;-55
2024/03/30 14:42:50;;;;;;;9.10;3.57;;;;;;;17.43;59.26;99532.03;10454374;28;20272;-55
2024/03/30 14:47:50;;;;;;;6.63;3.40;;;;;;;17.42;59.06;99540.38;10437282;28;20849;-54
2024/03/30 14:52:51;;;;;;;14.87;3.77;;;;;;;17.38;58.91;99563.53;10453919;28;20336;-55
2024/03/30 14:57:52;;;;;;;10.30;3.47;;;;;;;17.39;59.32;99565.91;10436102;28;20279;-53
2024/03/30 15:02:52;;;;;;;7.55;2.78;;;;;;;17.38;59.11;99576.94;10454558;28;20028;-54
2024/03/30 15:07:52;;;;;;;12.57;3.97;;;;;;;17.39;59.92;99587.31;10454578;28;20052;-53
2024/03/30 15:12:53;;;;;;;8.13;3.10;;;;;;;17.38;59.41;99603.72;10453462;28;20338;-54
2024/03/30 15:17:53;;;;;;;6.23;3.40;;;;;;;17.37;59.30;99604.81;10453672;28;20025;-54
2024/03/30 15:22:53;;;;;;;8.83;2.83;;;;;;;17.35;59.06;99610.50;10453109;28;20868;-55
2024/03/30 15:27:55;;;;;;;8.50;3.45;;;;;;;17.34;58.21;99606.25;10453347;28;20291;-54
2024/03/30 15:32:56;;;;;;;5.45;2.03;;;;;;;17.33;59.43;99603.88;10452289;28;20025;-55
2024/03/30 15:37:56;;;;;;;5.88;2.20;;;;;;;17.33;59.21;99606.56;10453162;28;20665;-56
2024/03/30 15:42:56;;;;;;;3.63;2.50;;;;;;;17.34;58.95;99610.81;10452648;28;20039;-54
2024/03/30 15:48:01;;;;;;;5.23;2.60;;;;;;;17.33;59.23;99610.03;10451772;28;20527;-54
2024/03/30 15:53:02;;;;;;;5.20;1.60;;;;;;;17.35;58.42;99615.06;10434024;28;20267;-54
2024/03/30 15:58:03;;;;;;;5.68;2.28;;;;;;;17.37;58.80;99620.91;10434314;28;20611;-54
2024/03/30 16:03:03;;;;;;;4.57;2.50;;;;;;;17.43;58.55;99612.41;10450168;28;20029;-54
2024/03/30 16:08:05;;;;;;;10.45;2.45;;;;;;;17.57;59.30;99611.47;10450782;28;20027;-55
2024/03/30 16:13:05;;;;;;;8.27;2.63;;;;;;;17.62;59.01;99603.25;10450616;28;20049;-54
2024/03/30 16:18:05;;;;;;;10.43;2.90;;;;;;;17.56;58.54;99599.97;10433291;28;20029;-57
2024/03/30 16:23:05;;;;;;;13.40;1.97;;;;;;;17.68;58.75;99602.00;10432103;28;20126;-55
2024/03/30 16:28:06;;;;;;;10.10;2.50;;;;;;;17.71;58.59;99612.13;10450264;28;20287;-57
2024/03/30 16:33:06;;;;;;;10.05;3.03;;;;;;;17.69;59.50;99633.09;10449461;28;20356;-53
2024/03/30 16:38:06;;;;;;;11.63;2.87;;;;;;;17.61;58.99;99645.34;10449610;28;20043;-54
2024/03/30 16:43:07;;;;;;;10.30;2.50;;;;;;;17.61;59.09;99649.94;10450254;28;20287;-55
2024/03/30 16:48:07;;;;;;;16.23;4.07;;;;;;;17.63;59.50;99655.75;10446376;28;20416;-55
2024/03/30 16:53:08;;;;;;;15.95;3.53;;;;;;;17.69;61.09;99652.66;10430907;28;20279;-53
2024/03/30 16:58:08;;;;;;;24.40;8.30;;;;;;;17.72;65.74;99645.88;10448117;28;20028;-54
2024/03/30 17:03:08;;;;;;;33.20;11.23;;;;;;;17.75;64.33;99642.56;10446240;28;20017;-57
2024/03/30 17:08:09;;;;;;;32.10;9.23;;;;;;;17.92;62.76;99644.47;10446679;28;20128;-57
2024/03/30 17:13:09;;;;;;;27.60;7.33;;;;;;;17.87;62.05;99642.72;10447710;28;20298;-56
2024/03/30 17:18:09;;;;;;;27.60;8.88;;;;;;;17.86;62.20;99634.97;10448145;28;20537;-55
2024/03/30 17:23:10;;;;;;;25.23;8.35;;;;;;;17.83;61.46;99631.03;10448152;28;20032;-57
2024/03/30 17:28:10;;;;;;;28.70;8.40;;;;;;;17.80;61.66;99642.41;10454511;28;20227;-56
2024/03/30 17:33:10;;;;;;;18.20;6.30;;;;;;;17.71;62.20;99661.16;10459515;28;20413;-56
2024/03/30 17:38:13;;;;;;;19.60;7.00;;;;;;;17.73;62.89;99663.53;10448163;28;20623;-56
2024/03/30 17:43:14;;;;;;;20.60;5.95;;;;;;;17.63;62.65;99655.75;10447582;28;20303;-54
2024/03/30 17:48:14;;;;;;;20.43;6.67;;;;;;;17.57;62.99;99657.03;10441147;28;20112;-53
2024/03/30 17:53:14;;;;;;;20.00;5.97;;;;;;;17.54;62.66;99656.56;10448465;28;20358;-56
2024/03/30 17:58:15;;;;;;;21.60;6.50;;;;;;;17.51;61.86;99680.50;10430939;28;20366;-56
2024/03/30 18:03:15;;;;;;;19.10;6.03;;;;;;;17.51;62.68;99715.34;10448027;28;20350;-56
2024/03/30 18:08:16;;;;;;;20.98;6.70;;;;;;;17.47;61.34;99727.81;10447740;28;20068;-55
2024/03/30 18:13:16;;;;;;;22.67;5.30;;;;;;;17.46;61.80;99723.53;10448274;28;20055;-56
2024/03/30 18:18:17;;;;;;;17.10;5.55;;;;;;;17.43;61.25;99749.09;10447053;28;20357;-56
2024/03/30 18:23:18;;;;;;;33.35;7.30;;;;;;;17.42;60.97;99754.75;10445744;28;20040;-56
2024/03/30 18:28:18;;;;;;;15.60;5.47;;;;;;;17.41;62.30;99772.72;10447794;28;20104;-58
2024/03/30 18:33:18;;;;;;;16.37;5.20;;;;;;;17.39;61.07;99774.91;10435856;28;20290;-57
2024/03/30 18:38:19;;;;;;;21.05;5.55;;;;;;;17.40;60.83;99778.38;10455374;28;20275;-57
2024/03/30 18:43:19;;;;;;;14.07;5.37;;;;;;;17.36;61.04;99791.59;10454916;28;20033;-57
2024/03/30 18:48:19;;;;;;;14.37;4.33;;;;;;;17.32;60.43;99787.97;10455063;28;20777;-55
2024/03/30 18:53:20;;;;;;;13.20;5.00;;;;;;;17.31;60.94;99788.28;10452552;28;20286;-56
2024/03/30 18:58:20;;;;;;;11.70;3.83;;;;;;;17.32;60.71;99798.69;10451530;28;20017;-61
2024/03/30 19:03:21;;;;;;;9.17;3.80;;;;;;;17.34;61.76;99815.25;10451755;28;20267;-61
2024/03/30 19:08:21;;;;;;;95.57;38.70;;;;;;;17.39;61.54;99815.09;10434014;28;20283;-61
2024/03/30 19:13:21;;;;;;;27.70;8.27;;;;;;;17.36;62.16;99818.41;10433406;28;20052;-61
2024/03/30 19:18:22;;;;;;;19.80;7.97;;;;;;;17.46;59.27;99826.16;10450344;28;20267;-59
2024/03/30 19:23:23;;;;;;;16.13;7.25;;;;;;;17.61;59.64;99824.16;10437962;28;20671;-59
2024/03/30 19:28:23;;;;;;;15.32;7.72;;;;;;;17.76;58.38;99823.78;10438561;28;20515;-59
2024/03/30 19:33:26;;;;;;;14.00;6.73;;;;;;;17.84;58.99;99825.69;10451097;28;20032;-62
2024/03/30 19:38:26;;;;;;;16.92;8.05;;;;;;;17.92;58.70;99837.56;10450288;28;20279;-60
2024/03/30 19:43:26;;;;;;;12.90;6.95;;;;;;;17.92;58.48;99832.19;10449441;28;20033;-60
2024/03/30 19:48:27;;;;;;;10.77;6.40;;;;;;;17.92;58.98;99832.19;10440300;28;20120;-60
2024/03/30 19:53:27;;;;;;;14.90;7.97;;;;;;;17.95;59.25;99832.34;10416099;28;20361;-62
2024/03/30 19:58:28;;;;;;;13.20;7.25;;;;;;;17.93;58.23;99829.19;10448806;28;20271;-60
2024/03/30 20:03:28;;;;;;;11.73;8.15;;;;;;;17.93;58.48;99831.88;10449605;28;20464;-60
2024/03/30 20:08:29;;;;;;;11.60;6.10;;;;;;;17.89;58.22;99832.81;10449620;28;20024;-60
2024/03/30 20:13:30;;;;;;;9.07;5.65;;;;;;;17.87;57.88;99837.69;10431752;28;20654;-60
2024/03/30 20:18:32;;;;;;;9.93;5.95;;;;;;;17.87;57.70;99829.63;10449255;28;20024;-59
2024/03/30 20:23:33;;;;;;;8.60;5.45;;;;;;;17.85;57.79;99834.53;10448833;28;20086;-60
2024/03/30 20:28:34;;;;;;;9.35;4.63;;;;;;;17.86;57.78;99844.16;10447907;28;20075;-62
2024/03/30 20:33:35;;;;;;;9.77;4.65;;;;;;;17.80;58.34;99830.09;10447872;28;20021;-61
2024/03/30 20:38:36;;;;;;;7.07;4.57;;;;;;;17.74;57.95;99829.44;10446379;28;20021;-62
2024/03/30 20:43:38;;;;;;;7.55;4.18;;;;;;;17.70;58.09;99830.38;10437052;28;20025;-61
2024/03/30 20:48:42;;;;;;;8.23;4.07;;;;;;;17.63;58.49;99828.13;10447931;28;20487;-60
2024/03/30 20:53:42;;;;;;;6.38;4.38;;;;;;;17.60;58.82;99836.00;10429748;28;20052;-60
2024/03/30 20:58:44;;;;;;;4.97;3.70;;;;;;;17.57;58.27;99823.22;10447656;28;20052;-61
2024/03/30 21:03:45;;;;;;;7.50;4.13;;;;;;;17.52;57.84;99827.63;10447791;28;20288;-61
2024/03/30 21:08:45;;;;;;;5.93;3.60;;;;;;;17.50;58.24;99827.13;10430836;28;20035;-61
2024/03/30 21:13:45;;;;;;;7.60;4.95;;;;;;;17.47;58.87;99827.75;10450210;28;20578;-61
2024/03/30 21:18:46;;;;;;;11.10;4.93;;;;;;;17.47;58.89;99835.78;10432362;28;20021;-61
2024/03/30 21:23:46;;;;;;;8.00;4.93;;;;;;;17.44;58.98;99843.66;10432226;28;20283;-62
2024/03/30 21:28:47;;;;;;;5.68;4.13;;;;;;;17.42;57.82;99846.66;10449677;28;20287;-61
2024/03/30 21:33:47;;;;;;;5.25;4.18;;;;;;;17.40;58.47;99854.19;10431904;28;20415;-61
2024/03/30 21:38:47;;;;;;;6.30;4.80;;;;;;;17.39;58.57;99849.94;10449584;28;20021;-62
2024/03/30 21:43:48;;;;;;;5.93;3.97;;;;;;;17.41;59.19;99863.03;10449569;28;20657;-61
2024/03/30 21:48:49;;;;;;;7.47;4.65;;;;;;;17.41;58.13;99871.09;10431263;28;20086;-62
2024/03/30 21:53:49;;;;;;;6.13;4.10;;;;;;;17.38;58.11;99867.09;10449549;28;20033;-61
2024/03/30 21:58:49;;;;;;;6.10;3.92;;;;;;;17.37;58.42;99872.78;10448997;28;20403;-61
2024/03/30 22:03:50;;;;;;;4.97;3.20;;;;;;;17.35;58.28;99869.63;10449293;28;20033;-60
2024/03/30 22:08:50;;;;;;;5.00;3.40;;;;;;;17.40;58.47;99869.47;10456588;28;20299;-60
2024/03/30 22:13:50;;;;;;;5.77;4.10;;;;;;;17.45;58.31;99858.66;10457175;28;20040;-61
2024/03/30 22:18:54;;;;;;;5.15;3.67;;;;;;;17.49;57.82;99856.91;10456929;28;20287;-61
2024/03/30 22:23:58;;;;;;;4.63;3.22;;;;;;;17.47;57.50;99848.41;10456964;28;20036;-62
2024/03/30 22:28:59;;;;;;;6.53;4.03;;;;;;;17.48;58.20;99849.97;10456227;28;20044;-61
2024/03/30 22:33:59;;;;;;;4.05;3.20;;;;;;;17.48;58.39;99845.41;10455197;28;20031;-61
2024/03/30 22:38:59;;;;;;;7.80;3.40;;;;;;;17.53;57.34;99852.53;10455755;28;20029;-61
2024/03/30 22:44:00;;;;;;;5.43;4.07;;;;;;;17.53;57.10;99856.00;10438156;28;20032;-61
2024/03/30 22:49:00;;;;;;;5.40;3.27;;;;;;;17.53;57.98;99858.69;10455447;28;20345;-60
2024/03/30 22:54:01;;;;;;;5.47;3.30;;;;;;;17.55;57.55;99855.69;10455825;28;20282;-61
2024/03/30 22:59:01;;;;;;;4.17;2.80;;;;;;;17.54;57.60;99841.50;10454981;28;20017;-62
2024/03/30 23:04:01;;;;;;;5.20;2.63;;;;;;;17.55;57.79;99842.28;10437635;28;20287;-60
2024/03/30 23:09:02;;;;;;;4.40;3.13;;;;;;;17.52;57.89;99837.53;10454948;28;20287;-61
2024/03/30 23:14:02;;;;;;;4.47;2.88;;;;;;;17.51;56.48;99857.41;10436612;28;20767;-61
2024/03/30 23:19:03;;;;;;;6.03;3.03;;;;;;;17.48;56.68;99837.38;10453323;28;20049;-61
2024/03/30 23:24:04;;;;;;;4.60;2.70;;;;;;;17.46;57.24;99844.16;10454655;28;20461;-60